Time;durP1;ratioP1;P1;durP2;ratioP2;P2;SDS_P1;SDS_P2;PMS_P1;PMS_P2;Temp;Humidity;BMP_temperature;BMP_pressure;BME280_temperature;BME280_humidity;BME280_pressure;Samples;Min_cycle;Max_cycle;Signal;HPM_P1;HPM_P2
2022/02/26 00:01:38;;;;;;;2.10;2.00;;;;;;;2.80;100.00;101504.75;5052835;28;20171;-71
2022/02/26 00:04:03;;;;;;;7.43;2.07;;;;;;;2.85;100.00;101499.47;5052748;28;20182;-72
2022/02/26 00:06:29;;;;;;;10.13;1.90;;;;;;;2.94;100.00;101505.34;5052762;28;20207;-74
2022/02/26 00:08:55;;;;;;;2.63;0.77;;;;;;;3.01;99.78;101521.41;5052690;28;20210;-74
2022/02/26 00:11:20;;;;;;;2.63;0.20;;;;;;;2.94;99.55;101497.25;5052550;28;20255;-74
2022/02/26 00:13:46;;;;;;;0.40;0.40;;;;;;;2.85;100.00;101507.56;5034726;28;20175;-73
2022/02/26 00:16:11;;;;;;;4.37;0.90;;;;;;;2.87;100.00;101527.03;5052487;28;20182;-73
2022/02/26 00:18:37;;;;;;;0.70;0.57;;;;;;;2.97;99.31;101516.50;5052387;28;20179;-73
2022/02/26 00:21:02;;;;;;;0.70;0.40;;;;;;;3.02;99.08;101523.06;5052654;28;20258;-73
2022/02/26 00:23:28;;;;;;;0.87;0.67;;;;;;;3.02;98.98;101529.28;5052405;28;20175;-74
2022/02/26 00:25:53;;;;;;;5.47;1.83;;;;;;;3.02;98.81;101518.47;5052466;28;20202;-75
2022/02/26 00:28:20;;;;;;;1.90;0.77;;;;;;;3.02;98.86;101528.47;5051880;28;20211;-74
2022/02/26 00:30:46;;;;;;;7.33;3.40;;;;;;;3.05;98.63;101528.00;5052261;28;20199;-76
2022/02/26 00:33:13;;;;;;;4.53;0.63;;;;;;;3.05;98.07;101536.13;5052377;28;20194;-74
2022/02/26 00:35:39;;;;;;;2.23;0.83;;;;;;;3.02;97.59;101529.28;5052190;28;20197;-74
2022/02/26 00:38:05;;;;;;;8.53;0.33;;;;;;;3.01;97.16;101537.63;5052109;28;20180;-75
2022/02/26 00:40:30;;;;;;;4.23;1.03;;;;;;;3.00;97.09;101531.41;5052169;28;20213;-72
2022/02/26 00:42:56;;;;;;;2.83;0.97;;;;;;;2.99;97.03;101541.38;5051707;28;20175;-72
2022/02/26 00:45:21;;;;;;;3.97;0.40;;;;;;;2.94;97.06;101537.75;5052478;28;20167;-75
2022/02/26 00:47:46;;;;;;;1.03;0.60;;;;;;;2.98;96.94;101544.31;5052076;28;20217;-74
2022/02/26 00:50:12;;;;;;;2.43;1.30;;;;;;;2.97;96.89;101539.97;5052022;28;20199;-74
2022/02/26 00:52:37;;;;;;;9.73;3.13;;;;;;;3.02;96.98;101550.06;5051899;28;20175;-74
2022/02/26 00:55:05;;;;;;;1.80;1.20;;;;;;;3.12;96.53;101571.91;5051860;28;20179;-71
2022/02/26 00:57:31;;;;;;;6.47;0.90;;;;;;;3.20;95.80;101558.06;5033648;28;20643;-71
2022/02/26 00:59:56;;;;;;;9.43;1.03;;;;;;;3.23;95.51;101568.41;5051741;28;20171;-72
2022/02/26 01:02:22;;;;;;;17.47;1.30;;;;;;;3.24;94.73;101570.03;5051592;28;20187;-72
2022/02/26 01:04:48;;;;;;;1.33;0.27;;;;;;;3.22;94.80;101567.56;5051634;28;20183;-72
2022/02/26 01:07:14;;;;;;;4.87;1.73;;;;;;;3.20;95.08;101563.47;5051335;28;20171;-74
2022/02/26 01:09:39;;;;;;;13.43;1.63;;;;;;;3.21;95.31;101565.09;5050863;28;20873;-74
2022/02/26 01:12:06;;;;;;;0.60;0.30;;;;;;;3.23;95.20;101571.09;5051380;28;20210;-72
2022/02/26 01:14:35;;;;;;;18.50;4.27;;;;;;;3.25;95.17;101569.78;5051470;28;20207;-75
2022/02/26 01:17:04;;;;;;;4.60;1.50;;;;;;;3.29;94.96;101564.75;5051230;28;20297;-74
2022/02/26 01:19:29;;;;;;;0.90;0.90;;;;;;;3.32;94.87;101572.38;5051225;28;20259;-74
2022/02/26 01:21:54;;;;;;;0.40;0.27;;;;;;;3.32;95.21;101571.53;5051095;28;20254;-74
2022/02/26 01:24:20;;;;;;;6.53;1.93;;;;;;;3.29;95.71;101576.38;5051444;28;20221;-72
2022/02/26 01:26:46;;;;;;;6.17;1.47;;;;;;;3.30;95.72;101577.19;5051177;28;20183;-72
2022/02/26 01:29:11;;;;;;;1.07;0.40;;;;;;;3.33;95.95;101576.75;5049501;28;20191;-72
2022/02/26 01:31:37;;;;;;;18.33;0.73;;;;;;;3.33;96.20;101582.13;5048916;28;20213;-73
2022/02/26 01:34:04;;;;;;;1.60;1.50;;;;;;;3.37;95.89;101590.59;5050944;28;20195;-73
2022/02/26 01:36:29;;;;;;;1.83;0.60;;;;;;;3.37;95.56;101577.91;5050788;28;20557;-74
2022/02/26 01:38:55;;;;;;;32.63;2.77;;;;;;;3.40;95.80;101585.53;5050813;28;20171;-74
2022/02/26 01:41:21;;;;;;;1.23;1.23;;;;;;;3.37;95.60;101586.00;5051001;28;20182;-74
2022/02/26 01:43:46;;;;;;;4.37;0.93;;;;;;;3.36;96.05;101581.66;5050683;28;20186;-74
2022/02/26 01:46:13;;;;;;;6.70;0.87;;;;;;;3.37;96.05;101574.38;5050857;28;20221;-74
2022/02/26 01:48:38;;;;;;;6.50;0.47;;;;;;;3.35;95.95;101588.13;5050734;28;20551;-75
2022/02/26 01:51:06;;;;;;;5.23;0.47;;;;;;;3.33;96.37;101587.53;5050748;28;20235;-74
2022/02/26 01:53:33;;;;;;;10.20;2.10;;;;;;;3.33;96.00;101582.13;5050912;28;20179;-74
2022/02/26 01:55:58;;;;;;;4.27;0.87;;;;;;;3.35;96.25;101590.00;5050816;28;20171;-74
2022/02/26 01:58:24;;;;;;;6.23;0.23;;;;;;;3.35;96.56;101596.22;5050517;28;20527;-74
2022/02/26 02:00:50;;;;;;;1.93;0.50;;;;;;;3.35;96.41;101600.81;5050680;28;20167;-74
2022/02/26 02:03:15;;;;;;;3.17;0.90;;;;;;;3.38;95.95;101594.94;5050486;28;20207;-75
2022/02/26 02:05:43;;;;;;;4.43;1.43;;;;;;;3.40;95.58;101604.44;5050576;28;20248;-72
2022/02/26 02:08:08;;;;;;;6.53;2.47;;;;;;;3.37;95.39;101604.91;5032536;28;20606;-71
2022/02/26 02:10:35;;;;;;;1.87;1.17;;;;;;;3.38;95.86;101617.34;5050434;28;20226;-75
2022/02/26 02:13:01;;;;;;;5.67;1.20;;;;;;;3.36;95.99;101611.38;5050677;28;20178;-73
2022/02/26 02:15:45;;;;;;;7.60;1.63;;;;;;;3.37;95.96;101612.19;5050466;28;20277;-75
2022/02/26 02:18:12;;;;;;;1.80;0.80;;;;;;;3.38;95.71;101613.84;5050278;28;20175;-72
2022/02/26 02:20:39;;;;;;;2.13;1.10;;;;;;;3.41;94.95;101621.47;5050562;28;20178;-72
2022/02/26 02:23:05;;;;;;;1.10;0.87;;;;;;;3.40;95.08;101615.25;5054160;28;20174;-74
2022/02/26 02:25:33;;;;;;;0.50;0.37;;;;;;;3.43;94.27;101616.63;5054602;28;20543;-74
2022/02/26 02:27:59;;;;;;;11.90;1.50;;;;;;;3.44;94.52;101612.88;5054290;28;20306;-74
2022/02/26 02:30:26;;;;;;;1.73;0.73;;;;;;;3.44;94.47;101629.09;5054475;28;20234;-74
2022/02/26 02:32:53;;;;;;;15.20;3.07;;;;;;;3.45;93.64;101619.94;5036577;28;20175;-73
2022/02/26 02:35:32;;;;;;;2.57;0.63;;;;;;;3.43;93.89;101620.16;5054439;28;20176;-73
2022/02/26 02:37:59;;;;;;;0.80;0.37;;;;;;;3.43;93.88;101611.25;5054397;28;20174;-74
2022/02/26 02:40:25;;;;;;;0.93;0.93;;;;;;;3.42;94.00;101632.03;5054430;28;20191;-75
2022/02/26 02:42:52;;;;;;;5.03;0.93;;;;;;;3.43;94.15;101646.34;5054037;28;20237;-75
2022/02/26 02:45:18;;;;;;;12.23;0.90;;;;;;;3.43;94.44;101647.19;5054528;28;20180;-74
2022/02/26 02:47:44;;;;;;;8.97;2.03;;;;;;;3.43;94.17;101652.59;5054086;28;20669;-74
2022/02/26 02:50:09;;;;;;;7.03;0.93;;;;;;;3.42;94.46;101650.13;5054469;28;20179;-71
2022/02/26 02:52:35;;;;;;;1.03;0.83;;;;;;;3.41;94.18;101662.81;5054147;28;20182;-75
2022/02/26 02:55:00;;;;;;;3.70;2.20;;;;;;;3.40;94.21;101655.75;5054020;28;20179;-74
2022/02/26 02:57:25;;;;;;;0.93;0.60;;;;;;;3.37;94.34;101653.53;5054242;28;20175;-72
2022/02/26 02:59:51;;;;;;;0.80;0.63;;;;;;;3.38;94.31;101651.66;5054149;28;20171;-74
2022/02/26 03:02:16;;;;;;;1.77;0.97;;;;;;;3.35;94.54;101666.44;5053962;28;20635;-74
2022/02/26 03:04:42;;;;;;;12.37;1.47;;;;;;;3.34;94.91;101672.91;5053923;28;20184;-74
2022/02/26 03:07:07;;;;;;;5.37;0.60;;;;;;;3.33;95.93;101683.91;5053726;28;20180;-74
2022/02/26 03:09:32;;;;;;;2.37;0.93;;;;;;;3.31;96.37;101675.22;5053807;28;20187;-71
2022/02/26 03:11:58;;;;;;;7.73;0.80;;;;;;;3.30;96.70;101687.91;5053635;28;20207;-74
2022/02/26 03:14:23;;;;;;;1.20;1.10;;;;;;;3.29;97.22;101688.97;5053757;28;20263;-73
2022/02/26 03:16:48;;;;;;;6.43;1.87;;;;;;;3.26;97.58;101687.56;5053640;28;20168;-74
2022/02/26 03:19:14;;;;;;;3.20;1.00;;;;;;;3.21;98.35;101679.34;5053672;28;20187;-74
2022/02/26 03:21:42;;;;;;;4.03;1.20;;;;;;;3.19;98.51;101696.84;5053628;28;20171;-74
2022/02/26 03:24:12;;;;;;;0.97;0.37;;;;;;;3.17;98.60;101688.94;5053206;28;20254;-73
2022/02/26 03:26:38;;;;;;;2.63;1.10;;;;;;;3.16;98.99;101698.09;5049983;28;20621;-75
2022/02/26 03:29:07;;;;;;;8.40;1.43;;;;;;;3.15;98.68;101703.72;5053270;28;20187;-73
2022/02/26 03:31:33;;;;;;;5.60;0.63;;;;;;;3.13;99.02;101700.44;5053217;28;20207;-74
2022/02/26 03:33:59;;;;;;;0.73;0.30;;;;;;;3.11;98.93;101700.69;5052956;28;20229;-74
2022/02/26 03:36:24;;;;;;;5.80;1.80;;;;;;;3.10;98.77;101700.91;5053293;28;20175;-74
2022/02/26 03:38:49;;;;;;;2.00;0.67;;;;;;;3.08;98.28;101708.41;5053016;28;20175;-75
2022/02/26 03:41:15;;;;;;;0.00;0.00;;;;;;;3.04;98.36;101704.50;5053246;28;20167;-74
2022/02/26 03:43:42;;;;;;;1.50;0.73;;;;;;;3.01;98.82;101710.38;5052800;28;20179;-74
2022/02/26 03:46:07;;;;;;;2.60;0.60;;;;;;;2.98;98.69;101714.38;5053152;28;20178;-74
2022/02/26 03:48:33;;;;;;;3.30;0.87;;;;;;;2.97;98.80;101702.75;5053007;28;20171;-74
2022/02/26 03:51:05;;;;;;;10.70;1.33;;;;;;;2.95;98.48;101706.72;5052916;28;20254;-74
2022/02/26 03:53:31;;;;;;;3.97;3.13;;;;;;;2.91;98.67;101711.78;5053117;28;20159;-74
2022/02/26 03:55:58;;;;;;;19.77;1.50;;;;;;;2.91;98.11;101716.34;5053044;28;20533;-74
2022/02/26 03:58:23;;;;;;;0.93;0.33;;;;;;;2.93;97.73;101719.63;5052913;28;20532;-74
2022/02/26 04:00:48;;;;;;;1.43;0.90;;;;;;;2.93;97.61;101717.75;5052825;28;20175;-74
2022/02/26 04:03:14;;;;;;;3.03;1.20;;;;;;;2.93;97.24;101715.06;5052862;28;20221;-74
2022/02/26 04:05:39;;;;;;;8.20;0.93;;;;;;;2.91;97.54;101733.38;5053028;28;20182;-71
2022/02/26 04:08:04;;;;;;;2.73;0.63;;;;;;;2.89;97.34;101732.78;5052752;28;20167;-74
2022/02/26 04:10:31;;;;;;;7.43;2.03;;;;;;;2.87;97.70;101736.72;5052740;28;20221;-74
2022/02/26 04:12:56;;;;;;;6.37;0.90;;;;;;;2.87;97.57;101742.13;5034857;28;20172;-73
2022/02/26 04:15:22;;;;;;;1.60;0.43;;;;;;;2.82;98.00;101734.72;5052548;28;20182;-73
2022/02/26 04:17:47;;;;;;;3.37;0.40;;;;;;;2.76;98.46;101743.75;5052563;28;20254;-74
2022/02/26 04:20:12;;;;;;;13.20;2.17;;;;;;;2.68;98.65;101742.16;5052400;28;20191;-74
2022/02/26 04:22:38;;;;;;;14.67;1.63;;;;;;;2.62;99.12;101745.78;5052481;28;20168;-74
2022/02/26 04:25:04;;;;;;;5.23;1.90;;;;;;;2.58;99.64;101743.75;5052475;28;20633;-74
2022/02/26 04:27:29;;;;;;;3.50;0.30;;;;;;;2.57;100.00;101753.72;5034122;28;20187;-72
2022/02/26 04:29:55;;;;;;;3.60;0.50;;;;;;;2.57;100.00;101760.97;5052376;28;20570;-71
2022/02/26 04:32:20;;;;;;;1.57;1.00;;;;;;;2.55;100.00;101766.59;5052333;28;20230;-74
2022/02/26 04:34:45;;;;;;;3.57;0.97;;;;;;;2.53;100.00;101765.19;5052291;28;20244;-74
2022/02/26 04:37:10;;;;;;;6.23;1.33;;;;;;;2.51;100.00;101773.50;5051925;28;20175;-71
2022/02/26 04:39:36;;;;;;;0.93;0.47;;;;;;;2.52;100.00;101774.34;5051995;28;20552;-72
2022/02/26 04:42:01;;;;;;;5.53;0.73;;;;;;;2.52;100.00;101775.16;5052146;28;20658;-71
2022/02/26 04:44:27;;;;;;;5.20;1.40;;;;;;;2.55;100.00;101777.41;5050861;28;20171;-74
2022/02/26 04:46:52;;;;;;;5.10;1.23;;;;;;;2.57;100.00;101785.25;5052003;28;20221;-74
2022/02/26 04:49:17;;;;;;;0.87;0.03;;;;;;;2.57;100.00;101780.69;5052044;28;20163;-71
2022/02/26 04:51:43;;;;;;;5.77;1.70;;;;;;;2.58;100.00;101787.72;5051975;28;20203;-72
2022/02/26 04:54:08;;;;;;;5.23;1.10;;;;;;;2.61;100.00;101791.88;5051993;28;20168;-72
2022/02/26 04:56:34;;;;;;;2.63;0.53;;;;;;;2.62;100.00;101793.53;5051819;28;20181;-72
2022/02/26 04:58:59;;;;;;;0.50;0.23;;;;;;;2.59;100.00;101786.69;5051627;28;20175;-72
2022/02/26 05:01:24;;;;;;;7.93;0.97;;;;;;;2.59;100.00;101794.78;5051884;28;20178;-72
2022/02/26 05:03:50;;;;;;;12.17;1.80;;;;;;;2.57;100.00;101794.19;5051833;28;20733;-72
2022/02/26 05:06:16;;;;;;;9.73;0.80;;;;;;;2.55;100.00;101795.44;5051632;28;20198;-72
2022/02/26 05:08:41;;;;;;;0.00;0.00;;;;;;;2.51;100.00;101796.97;5033841;28;20186;-71
2022/02/26 05:11:06;;;;;;;1.40;0.90;;;;;;;2.47;100.00;101802.00;5051654;28;20444;-71
2022/02/26 05:13:33;;;;;;;11.83;1.27;;;;;;;2.45;100.00;101793.28;5051571;28;20168;-71
2022/02/26 05:15:58;;;;;;;10.07;1.33;;;;;;;2.43;100.00;101802.63;5051682;28;20349;-72
2022/02/26 05:18:23;;;;;;;1.53;0.77;;;;;;;2.43;100.00;101794.53;5051352;28;20593;-72
2022/02/26 05:20:49;;;;;;;4.77;1.20;;;;;;;2.40;100.00;101798.53;5051474;28;20241;-74
2022/02/26 05:23:14;;;;;;;5.00;1.50;;;;;;;2.37;100.00;101807.06;5051728;28;20592;-74
2022/02/26 05:25:39;;;;;;;8.87;1.97;;;;;;;2.34;100.00;101810.22;5051706;28;20254;-72
2022/02/26 05:28:05;;;;;;;4.03;1.70;;;;;;;2.29;100.00;101820.81;5051127;28;20191;-71
2022/02/26 05:30:30;;;;;;;0.27;0.13;;;;;;;2.27;100.00;101823.75;5051423;28;20286;-74
2022/02/26 05:32:56;;;;;;;0.63;0.63;;;;;;;2.28;100.00;101830.78;5051592;28;20182;-74
2022/02/26 05:35:21;;;;;;;14.90;1.20;;;;;;;2.29;100.00;101832.44;5051599;28;20648;-74
2022/02/26 05:37:46;;;;;;;3.30;1.23;;;;;;;2.28;100.00;101827.25;5048495;28;20533;-74
2022/02/26 05:40:12;;;;;;;7.43;1.87;;;;;;;2.26;100.00;101830.19;5048991;28;20175;-74
2022/02/26 05:42:38;;;;;;;1.40;0.90;;;;;;;2.25;100.00;101835.81;5050089;28;20167;-73
2022/02/26 05:45:05;;;;;;;0.00;0.00;;;;;;;2.24;100.00;101837.69;5050489;28;20206;-73
2022/02/26 05:47:30;;;;;;;5.40;1.50;;;;;;;2.28;100.00;101838.06;5051160;28;20183;-73
2022/02/26 05:49:56;;;;;;;4.27;1.27;;;;;;;2.29;100.00;101848.59;5057019;28;20175;-74
2022/02/26 05:52:21;;;;;;;1.97;1.10;;;;;;;2.34;100.00;101853.34;5059768;28;20207;-74
2022/02/26 05:54:46;;;;;;;0.80;0.60;;;;;;;2.35;100.00;101866.63;5051831;28;20179;-74
2022/02/26 05:57:12;;;;;;;6.17;2.07;;;;;;;2.39;100.00;101867.00;5050865;28;20531;-73
2022/02/26 05:59:37;;;;;;;2.93;0.70;;;;;;;2.39;100.00;101875.91;5050801;28;20183;-74
2022/02/26 06:02:03;;;;;;;10.40;1.23;;;;;;;2.41;100.00;101869.47;5050769;28;20653;-73
2022/02/26 06:04:29;;;;;;;4.50;1.30;;;;;;;2.44;100.00;101879.81;5050745;28;20175;-74
2022/02/26 06:06:54;;;;;;;4.43;1.03;;;;;;;2.46;100.00;101875.00;5050415;28;20177;-74
2022/02/26 06:09:19;;;;;;;8.23;1.17;;;;;;;2.47;100.00;101892.88;5050822;28;20178;-74
2022/02/26 06:11:45;;;;;;;7.23;0.60;;;;;;;2.45;100.00;101890.38;5050366;28;20317;-74
2022/02/26 06:14:10;;;;;;;7.30;1.47;;;;;;;2.44;100.00;101894.13;5050733;28;20182;-74
2022/02/26 06:16:35;;;;;;;0.57;0.47;;;;;;;2.45;100.00;101894.94;5050555;28;20171;-74
2022/02/26 06:19:01;;;;;;;5.43;0.37;;;;;;;2.42;100.00;101890.81;5032653;28;20236;-74
2022/02/26 06:21:26;;;;;;;6.47;1.50;;;;;;;2.39;100.00;101884.00;5050515;28;20877;-74
2022/02/26 06:23:51;;;;;;;1.90;1.63;;;;;;;2.37;100.00;101896.06;5050541;28;20288;-74
2022/02/26 06:26:17;;;;;;;5.70;1.13;;;;;;;2.36;100.00;101899.81;5050220;28;20642;-74
2022/02/26 06:28:42;;;;;;;8.80;1.23;;;;;;;2.37;100.00;101896.06;5050128;28;20626;-74
2022/02/26 06:31:08;;;;;;;3.50;1.20;;;;;;;2.39;100.00;101907.44;5050398;28;20258;-73
2022/02/26 06:33:33;;;;;;;5.93;1.20;;;;;;;2.38;100.00;101909.31;5050521;28;20190;-74
2022/02/26 06:35:58;;;;;;;4.80;1.13;;;;;;;2.38;100.00;101920.09;5050412;28;20201;-75
2022/02/26 06:38:23;;;;;;;6.87;1.20;;;;;;;2.37;100.00;101913.06;5050277;28;20202;-74
2022/02/26 06:40:49;;;;;;;2.60;2.40;;;;;;;2.39;100.00;101921.75;5050084;28;20180;-74
2022/02/26 06:43:14;;;;;;;3.10;0.60;;;;;;;2.35;100.00;101920.56;5050335;28;20229;-74
2022/02/26 06:45:40;;;;;;;8.83;1.57;;;;;;;2.35;100.00;101928.66;5050293;28;20179;-73
2022/02/26 06:48:05;;;;;;;12.30;1.23;;;;;;;2.39;100.00;101932.53;5050177;28;20654;-76
2022/02/26 06:50:31;;;;;;;3.10;2.30;;;;;;;2.37;100.00;101940.03;5050197;28;20256;-71
2022/02/26 06:52:56;;;;;;;4.80;1.10;;;;;;;2.37;100.00;101950.81;5050214;28;20171;-72
2022/02/26 06:55:21;;;;;;;4.57;1.80;;;;;;;2.37;100.00;101956.22;5050700;28;20174;-73
2022/02/26 06:57:47;;;;;;;6.33;1.73;;;;;;;2.38;100.00;101952.47;5049957;28;20186;-73
2022/02/26 07:00:13;;;;;;;4.90;1.07;;;;;;;2.40;100.00;101954.94;5050270;28;20635;-74
2022/02/26 07:02:38;;;;;;;5.13;1.20;;;;;;;2.39;100.00;101966.78;5050136;28;20180;-74
2022/02/26 07:05:05;;;;;;;9.10;1.47;;;;;;;2.44;100.00;101963.41;5050103;28;20191;-70
2022/02/26 07:07:30;;;;;;;9.97;1.10;;;;;;;2.47;100.00;101971.09;5050144;28;20198;-71
2022/02/26 07:09:55;;;;;;;18.70;2.27;;;;;;;2.50;100.00;101968.78;5053769;28;20276;-71
2022/02/26 07:12:21;;;;;;;1.93;0.40;;;;;;;2.50;100.00;101981.44;5053646;28;20214;-73
2022/02/26 07:14:46;;;;;;;5.57;1.93;;;;;;;2.51;100.00;101986.59;5053706;28;20182;-74
2022/02/26 07:17:12;;;;;;;3.00;1.13;;;;;;;2.48;100.00;101976.25;5053275;28;20183;-73
2022/02/26 07:19:37;;;;;;;16.67;1.47;;;;;;;2.50;100.00;101987.66;5053507;28;20591;-73
2022/02/26 07:22:03;;;;;;;6.03;1.60;;;;;;;2.50;100.00;101994.91;5053433;28;20254;-71
2022/02/26 07:24:29;;;;;;;13.73;1.40;;;;;;;2.48;100.00;101997.00;5053292;28;20627;-72
2022/02/26 07:26:55;;;;;;;4.27;1.40;;;;;;;2.46;100.00;102002.63;5053243;28;20256;-73
2022/02/26 07:29:21;;;;;;;4.60;1.97;;;;;;;2.48;100.00;102000.53;5053337;28;20202;-71
2022/02/26 07:31:46;;;;;;;3.87;0.97;;;;;;;2.47;100.00;102003.47;5051446;28;20214;-71
2022/02/26 07:34:12;;;;;;;7.13;1.63;;;;;;;2.47;100.00;102008.84;5053252;28;20248;-71
2022/02/26 07:36:37;;;;;;;6.17;1.00;;;;;;;2.45;100.00;102019.84;5052989;28;20179;-71
2022/02/26 07:39:03;;;;;;;3.73;1.23;;;;;;;2.49;100.00;102017.53;5035264;28;20175;-71
2022/02/26 07:41:29;;;;;;;5.03;1.30;;;;;;;2.50;100.00;102021.91;5053325;28;20194;-71
2022/02/26 07:43:54;;;;;;;3.93;1.60;;;;;;;2.56;100.00;102029.09;5053000;28;20631;-71
2022/02/26 07:46:20;;;;;;;15.47;2.10;;;;;;;2.52;100.00;102030.59;5053139;28;20403;-73
2022/02/26 07:48:45;;;;;;;13.70;2.57;;;;;;;2.59;100.00;102042.13;5052937;28;20179;-74
2022/02/26 07:51:10;;;;;;;13.47;1.60;;;;;;;2.61;100.00;102049.00;5053083;28;20256;-74
2022/02/26 07:53:36;;;;;;;12.27;2.47;;;;;;;2.65;100.00;102049.38;5053053;28;20254;-72
2022/02/26 07:56:02;;;;;;;3.97;1.80;;;;;;;2.69;100.00;102053.28;5052966;28;20183;-71
2022/02/26 07:58:28;;;;;;;18.43;2.30;;;;;;;2.69;100.00;102051.41;5052824;28;20232;-71
2022/02/26 08:00:53;;;;;;;12.33;1.17;;;;;;;2.71;100.00;102053.06;5052860;28;20182;-72
2022/02/26 08:03:18;;;;;;;6.47;1.03;;;;;;;2.74;100.00;102058.84;5052693;28;20182;-74
2022/02/26 08:05:43;;;;;;;5.63;1.80;;;;;;;2.80;100.00;102060.69;5052807;28;20180;-74
2022/02/26 08:08:09;;;;;;;12.93;2.10;;;;;;;2.79;100.00;102059.03;5052461;28;20186;-75
2022/02/26 08:10:34;;;;;;;7.47;1.67;;;;;;;2.82;100.00;102068.56;5043948;28;20199;-72
2022/02/26 08:13:00;;;;;;;3.57;1.60;;;;;;;2.88;100.00;102075.75;5052228;28;20676;-71
2022/02/26 08:15:28;;;;;;;8.77;3.37;;;;;;;2.80;100.00;102066.06;5050572;28;20229;-75
2022/02/26 08:17:53;;;;;;;15.70;3.63;;;;;;;2.86;100.00;102077.84;5024565;28;20526;-74
2022/02/26 08:20:23;;;;;;;10.43;2.63;;;;;;;2.98;100.00;102082.31;5048345;28;20248;-74
2022/02/26 08:22:48;;;;;;;10.57;4.20;;;;;;;3.04;100.00;102090.56;5052728;28;20180;-72
2022/02/26 08:25:14;;;;;;;10.77;1.90;;;;;;;3.01;100.00;102093.72;5052309;28;20190;-72
2022/02/26 08:27:40;;;;;;;1.27;1.13;;;;;;;3.07;100.00;102088.28;5052071;28;20249;-71
2022/02/26 08:30:08;;;;;;;7.97;1.43;;;;;;;3.13;100.00;102087.38;5052280;28;20532;-71
2022/02/26 08:32:34;;;;;;;3.57;0.67;;;;;;;3.18;100.00;102079.47;5034264;28;20233;-71
2022/02/26 08:34:59;;;;;;;2.87;1.13;;;;;;;3.21;100.00;102099.78;5052233;28;20619;-71
2022/02/26 08:37:24;;;;;;;4.50;1.03;;;;;;;3.29;100.00;102088.69;5052057;28;20171;-71
2022/02/26 08:39:50;;;;;;;8.23;1.53;;;;;;;3.34;100.00;102093.44;5052286;28;20186;-72
2022/02/26 08:42:15;;;;;;;7.90;1.83;;;;;;;3.38;100.00;102090.06;5051850;28;20257;-72
2022/02/26 08:44:40;;;;;;;2.63;1.13;;;;;;;3.36;100.00;102105.69;5051592;28;20190;-72
2022/02/26 08:47:07;;;;;;;7.47;1.73;;;;;;;3.38;100.00;102106.28;5051784;28;20182;-75
2022/02/26 08:49:32;;;;;;;14.37;2.10;;;;;;;3.44;100.00;102116.19;5052018;28;20175;-74
2022/02/26 08:51:58;;;;;;;7.37;2.37;;;;;;;3.49;100.00;102127.16;5051852;28;20209;-74
2022/02/26 08:54:23;;;;;;;3.40;0.87;;;;;;;3.56;100.00;102130.63;5051759;28;20181;-74
2022/02/26 08:56:49;;;;;;;14.63;3.50;;;;;;;3.56;100.00;102130.63;5033657;28;20176;-72
2022/02/26 08:59:14;;;;;;;10.73;2.63;;;;;;;3.58;100.00;102131.22;5051660;28;20624;-72
2022/02/26 09:01:40;;;;;;;15.50;3.80;;;;;;;3.61;100.00;102145.31;5051928;28;20313;-73
2022/02/26 09:04:05;;;;;;;9.10;2.90;;;;;;;3.62;100.00;102142.44;5051616;28;20183;-75
2022/02/26 09:06:31;;;;;;;9.67;2.80;;;;;;;3.68;100.00;102146.09;5050991;28;20651;-71
2022/02/26 09:08:56;;;;;;;11.67;3.80;;;;;;;3.70;100.00;102142.13;5050372;28;20637;-72
2022/02/26 09:11:22;;;;;;;16.77;4.80;;;;;;;3.64;100.00;102145.72;5050988;28;20297;-71
2022/02/26 09:13:48;;;;;;;10.37;3.50;;;;;;;3.74;100.00;102147.91;5051400;28;20501;-71
2022/02/26 09:16:14;;;;;;;1.67;1.40;;;;;;;3.77;100.00;102142.06;5051464;28;20237;-71
2022/02/26 09:18:40;;;;;;;7.63;2.90;;;;;;;3.71;100.00;102149.19;5051332;28;20198;-71
2022/02/26 09:21:06;;;;;;;10.73;4.53;;;;;;;3.73;100.00;102148.94;5051379;28;20224;-71
2022/02/26 09:23:32;;;;;;;10.50;2.93;;;;;;;3.82;100.00;102153.03;5051281;28;20175;-72
2022/02/26 09:25:58;;;;;;;12.50;4.00;;;;;;;3.92;100.00;102163.31;5051289;28;20179;-74
2022/02/26 09:28:23;;;;;;;7.23;2.63;;;;;;;3.85;100.00;102168.78;5051017;28;20637;-71
2022/02/26 09:30:49;;;;;;;15.63;4.30;;;;;;;3.84;100.00;102165.25;5050765;28;20261;-71
2022/02/26 09:33:14;;;;;;;13.17;4.00;;;;;;;3.98;100.00;102170.53;5042424;28;20187;-72
2022/02/26 09:35:40;;;;;;;14.47;4.13;;;;;;;4.08;100.00;102166.25;5031156;28;20176;-71
2022/02/26 09:38:05;;;;;;;16.40;4.43;;;;;;;4.04;100.00;102165.03;5031288;28;20532;-72
2022/02/26 09:40:31;;;;;;;15.33;4.47;;;;;;;4.05;100.00;102172.13;5031169;28;20249;-71
2022/02/26 09:42:58;;;;;;;14.80;4.30;;;;;;;4.17;100.00;102174.88;5030749;28;20214;-71
2022/02/26 09:45:23;;;;;;;14.10;4.13;;;;;;;4.35;100.00;102183.00;5030906;28;20179;-71
2022/02/26 09:47:49;;;;;;;6.67;3.07;;;;;;;4.45;99.42;102187.84;5030905;28;20221;-72
2022/02/26 09:50:14;;;;;;;12.27;3.67;;;;;;;4.27;98.08;102186.00;5030987;28;20204;-71
2022/02/26 09:52:45;;;;;;;13.53;3.33;;;;;;;4.35;98.02;102188.41;5030650;28;20218;-72
2022/02/26 09:55:11;;;;;;;11.30;3.60;;;;;;;4.43;97.69;102188.09;5030750;28;20172;-72
2022/02/26 09:57:37;;;;;;;9.87;4.03;;;;;;;4.48;97.82;102185.53;5030726;28;20180;-72
2022/02/26 10:00:04;;;;;;;19.30;4.27;;;;;;;4.48;95.87;102188.25;5030972;28;20233;-71
2022/02/26 10:02:38;;;;;;;7.63;4.43;;;;;;;4.51;94.87;102195.09;5030788;28;20195;-71
2022/02/26 10:05:08;;;;;;;9.67;3.50;;;;;;;4.74;95.33;102192.47;5030702;28;20176;-71
2022/02/26 10:07:35;;;;;;;2.70;2.03;;;;;;;4.84;93.86;102199.22;5030432;28;20182;-71
2022/02/26 10:10:07;;;;;;;13.03;3.93;;;;;;;4.97;93.68;102197.16;5030928;28;20183;-71
2022/02/26 10:12:33;;;;;;;10.37;4.50;;;;;;;5.07;92.62;102197.44;5030578;28;20204;-74
2022/02/26 10:15:03;;;;;;;7.07;2.90;;;;;;;5.15;92.30;102207.09;5030832;28;20168;-71
2022/02/26 10:17:35;;;;;;;14.33;4.90;;;;;;;4.92;90.80;102199.72;5030393;28;20175;-74
2022/02/26 10:20:17;;;;;;;4.97;3.10;;;;;;;4.93;91.13;102205.97;5030482;28;20172;-72
2022/02/26 10:22:47;;;;;;;13.10;4.17;;;;;;;4.92;91.51;102201.59;5030438;28;20180;-72
2022/02/26 10:25:15;;;;;;;9.03;3.60;;;;;;;4.87;91.43;102196.03;5030391;28;20652;-72
2022/02/26 10:27:45;;;;;;;5.63;3.47;;;;;;;5.07;91.68;102202.03;5030034;28;20199;-72
2022/02/26 10:30:23;;;;;;;13.30;3.23;;;;;;;5.13;90.07;102211.91;5030448;28;20176;-72
2022/02/26 10:33:11;;;;;;;15.87;3.63;;;;;;;5.17;89.61;102209.56;5030580;28;20171;-72
2022/02/26 10:35:45;;;;;;;8.43;3.43;;;;;;;5.23;89.79;102211.38;5030525;28;20172;-72
2022/02/26 10:38:13;;;;;;;9.23;2.27;;;;;;;5.24;89.96;102175.91;5030353;28;20225;-71
2022/02/26 10:41:07;;;;;;;10.07;4.63;;;;;;;5.04;90.08;102197.03;5030436;28;20179;-72
2022/02/26 10:43:38;;;;;;;1.53;1.43;;;;;;;5.01;89.96;102205.63;5032358;28;20230;-72
2022/02/26 10:46:12;;;;;;;23.07;5.50;;;;;;;5.08;89.73;102206.38;5034329;28;20183;-72
2022/02/26 10:48:39;;;;;;;11.53;3.00;;;;;;;5.16;89.49;102203.31;5034426;28;20182;-72
2022/02/26 10:51:05;;;;;;;8.23;3.17;;;;;;;5.14;88.25;102210.84;5034377;28;20207;-72
2022/02/26 10:53:39;;;;;;;2.97;1.90;;;;;;;5.15;87.59;102209.78;5034279;28;20186;-72
2022/02/26 10:56:05;;;;;;;8.43;2.53;;;;;;;5.14;87.70;102212.75;5034243;28;20622;-72
2022/02/26 10:58:30;;;;;;;8.80;1.57;;;;;;;5.18;87.34;102200.38;5034141;28;20176;-72
2022/02/26 11:01:04;;;;;;;6.67;3.30;;;;;;;5.46;87.81;102210.56;5034186;28;20180;-72
2022/02/26 11:03:30;;;;;;;29.17;7.60;;;;;;;5.59;86.98;102208.47;5034117;28;20180;-72
2022/02/26 11:05:56;;;;;;;6.90;3.13;;;;;;;5.78;86.87;102211.06;5033970;28;20182;-72
2022/02/26 11:08:22;;;;;;;10.63;2.73;;;;;;;5.77;85.89;102217.53;5033819;28;20184;-72
2022/02/26 11:10:51;;;;;;;9.10;3.07;;;;;;;5.82;85.39;102204.94;5033957;28;20494;-72
2022/02/26 11:13:17;;;;;;;8.77;3.23;;;;;;;5.84;85.43;102205.53;5033981;28;20168;-72
2022/02/26 11:15:44;;;;;;;11.13;2.73;;;;;;;5.88;84.34;102212.13;5033965;28;20179;-72
2022/02/26 11:18:11;;;;;;;6.87;2.23;;;;;;;5.96;84.18;102210.97;5033661;28;20230;-72
2022/02/26 11:20:38;;;;;;;14.70;0.57;;;;;;;5.84;83.77;102205.53;5033775;28;20168;-72
2022/02/26 11:23:04;;;;;;;5.63;2.10;;;;;;;5.84;84.11;102202.81;5033717;28;20194;-71